Time;durP1;ratioP1;P1;durP2;ratioP2;P2;SDS_P1;SDS_P2;PMS_P1;PMS_P2;Temp;Humidity;BMP_temperature;BMP_pressure;BME280_temperature;BME280_humidity;BME280_pressure;Samples;Min_cycle;Max_cycle;Signal;HPM_P1;HPM_P2
2021/05/08 17:17:27;;;;;;;3.80;1.30;;;26.70;56.10;;;;;;5127297;27;21088;-79
2021/05/08 17:19:54;;;;;;;4.75;1.25;;;26.70;54.50;;;;;;5110999;28;20035;-80
2021/05/08 17:22:20;;;;;;;3.08;1.40;;;26.80;54.10;;;;;;5101376;28;21799;-81
2021/05/08 17:24:47;;;;;;;1.88;1.05;;;26.80;53.20;;;;;;5087971;28;20548;-77
2021/05/08 17:27:13;;;;;;;2.15;1.13;;;27.10;54.00;;;;;;5104391;28;20081;-78
2021/05/08 17:29:40;;;;;;;3.38;1.38;;;27.20;53.40;;;;;;5111793;28;20023;-77
2021/05/08 17:32:06;;;;;;;1.73;1.10;;;27.10;54.60;;;;;;5109521;28;20032;-76
2021/05/08 17:34:35;;;;;;;2.92;1.48;;;27.80;53.40;;;;;;5124721;27;20122;-76
2021/05/08 17:37:00;;;;;;;2.58;1.25;;;28.10;51.10;;;;;;5125084;28;20031;-77
2021/05/08 17:39:27;;;;;;;2.72;1.38;;;28.20;52.20;;;;;;5124933;28;20023;-77
2021/05/08 17:41:54;;;;;;;7.55;1.70;;;28.80;51.90;;;;;;5124701;28;20556;-77
2021/05/08 17:44:22;;;;;;;1.45;1.20;;;29.30;50.80;;;;;;5124425;27;20035;-75
2021/05/08 17:46:52;;;;;;;1.67;1.08;;;29.20;49.90;;;;;;5123755;28;20020;-77
2021/05/08 17:49:18;;;;;;;3.95;2.17;;;29.10;48.70;;;;;;5082523;28;20101;-77
2021/05/08 17:51:44;;;;;;;3.65;1.52;;;29.20;50.70;;;;;;5103946;28;20373;-77
2021/05/08 17:54:10;;;;;;;3.10;1.65;;;28.80;49.30;;;;;;5106700;28;20070;-77
2021/05/08 17:56:36;;;;;;;6.50;2.40;;;28.50;49.80;;;;;;5118678;28;20023;-78
2021/05/08 17:59:05;;;;;;;4.50;1.90;;;28.00;50.70;;;;;;5129766;27;20020;-75
2021/05/08 18:01:32;;;;;;;3.38;1.80;;;27.40;50.80;;;;;;5111296;27;20012;-76
2021/05/08 18:03:58;;;;;;;3.10;1.70;;;27.60;50.50;;;;;;5110937;28;20038;-76
2021/05/08 18:06:24;;;;;;;5.63;1.90;;;27.40;50.50;;;;;;5123258;28;20390;-76
2021/05/08 18:08:49;;;;;;;4.43;2.17;;;27.10;51.20;;;;;;5101937;28;20612;-76
2021/05/08 18:11:16;;;;;;;3.25;1.88;;;26.80;51.90;;;;;;5108797;28;20027;-75
2021/05/08 18:13:42;;;;;;;2.38;1.50;;;26.70;51.80;;;;;;5125007;28;20085;-75
2021/05/08 18:16:07;;;;;;;5.00;1.27;;;26.30;52.40;;;;;;5124298;27;20035;-74
2021/05/08 18:18:33;;;;;;;2.63;1.30;;;25.60;53.40;;;;;;5118610;28;20502;-73
2021/05/08 18:20:59;;;;;;;3.47;1.60;;;25.40;54.30;;;;;;5120244;28;20065;-73
2021/05/08 18:23:24;;;;;;;3.65;2.95;;;24.90;54.60;;;;;;5088574;28;20123;-74
2021/05/08 18:25:50;;;;;;;4.30;2.30;;;23.90;56.40;;;;;;5101877;28;20052;-75
2021/05/08 18:28:16;;;;;;;2.25;1.63;;;23.00;57.90;;;;;;5093006;28;20169;-73
2021/05/08 18:30:42;;;;;;;3.58;1.95;;;22.10;60.20;;;;;;5087257;28;20054;-73
2021/05/08 18:33:08;;;;;;;4.50;1.55;;;21.20;62.60;;;;;;5092300;28;20032;-73
2021/05/08 18:35:34;;;;;;;3.63;1.90;;;20.30;65.20;;;;;;5108033;28;20043;-75
2021/05/08 18:37:59;;;;;;;4.55;2.50;;;19.60;67.10;;;;;;5109485;28;20499;-73
2021/05/08 18:40:29;;;;;;;5.18;2.75;;;19.10;68.70;;;;;;5109333;28;20043;-73
2021/05/08 18:42:55;;;;;;;4.55;2.95;;;18.70;69.80;;;;;;5093163;28;20062;-75
2021/05/08 18:45:21;;;;;;;10.48;3.78;;;18.30;71.20;;;;;;5094933;28;20032;-73
2021/05/08 18:47:47;;;;;;;7.47;3.80;;;18.00;72.50;;;;;;5108583;28;20042;-76
2021/05/08 18:50:13;;;;;;;8.90;3.75;;;17.70;74.00;;;;;;5108512;28;20027;-76
2021/05/08 18:52:39;;;;;;;7.72;3.33;;;17.40;75.70;;;;;;5110025;28;20046;-75
2021/05/08 18:55:06;;;;;;;4.43;2.63;;;17.20;77.90;;;;;;5109212;28;20593;-75
2021/05/08 18:57:32;;;;;;;8.15;2.92;;;17.00;80.00;;;;;;5102128;28;20024;-75
2021/05/08 18:59:57;;;;;;;3.97;2.00;;;16.80;84.60;;;;;;5087273;28;20094;-75
2021/05/08 19:02:24;;;;;;;5.60;2.03;;;16.40;90.10;;;;;;5087085;28;20032;-75
2021/05/08 19:04:49;;;;;;;2.50;1.60;;;16.30;92.70;;;;;;5101405;28;20056;-76
2021/05/08 19:07:15;;;;;;;5.13;1.90;;;16.10;96.20;;;;;;5109460;28;20070;-75
2021/05/08 19:09:41;;;;;;;4.85;1.98;;;15.90;99.30;;;;;;5107529;28;20024;-76
2021/05/08 19:12:07;;;;;;;4.63;1.90;;;15.70;99.90;;;;;;5107923;28;20031;-75
2021/05/08 19:14:33;;;;;;;3.10;2.10;;;15.70;99.90;;;;;;5090693;28;20032;-76
2021/05/08 19:16:59;;;;;;;5.05;2.08;;;15.40;99.90;;;;;;5108541;28;20376;-76
2021/05/08 19:19:24;;;;;;;6.80;3.10;;;15.20;99.90;;;;;;5108914;28;20024;-75
2021/05/08 19:21:51;;;;;;;5.03;1.92;;;15.10;99.90;;;;;;5098287;27;20043;-75
2021/05/08 19:24:17;;;;;;;3.65;1.92;;;14.90;99.90;;;;;;5087756;28;20039;-75
2021/05/08 19:26:43;;;;;;;3.45;1.80;;;14.80;99.90;;;;;;5088555;28;20023;-75
2021/05/08 19:29:09;;;;;;;2.78;1.73;;;14.80;99.90;;;;;;5087121;28;20127;-76
2021/05/08 19:31:34;;;;;;;6.28;2.28;;;14.80;99.90;;;;;;5088506;28;20669;-75
2021/05/08 19:34:00;;;;;;;3.58;1.67;;;14.80;99.90;;;;;;5099842;28;20116;-75
2021/05/08 19:36:26;;;;;;;5.22;1.70;;;14.70;99.90;;;;;;5107148;28;20137;-76
2021/05/08 19:38:52;;;;;;;5.50;2.00;;;14.60;99.90;;;;;;5106737;28;20112;-75
2021/05/08 19:41:18;;;;;;;2.53;1.90;;;14.50;99.90;;;;;;5107788;28;20142;-76
2021/05/08 19:43:43;;;;;;;2.58;1.60;;;14.80;99.90;;;;;;5107797;28;20118;-78
2021/05/08 19:46:09;;;;;;;2.78;2.08;;;14.20;99.90;;;;;;5093760;28;20032;-77
2021/05/08 19:48:35;;;;;;;3.85;2.20;;;14.20;99.90;;;;;;5086754;28;20039;-78
2021/05/08 19:51:00;;;;;;;5.93;2.65;;;14.00;99.90;;;;;;5086848;28;20020;-78
2021/05/08 19:53:26;;;;;;;4.45;2.40;;;13.90;99.90;;;;;;5102260;28;20027;-77
2021/05/08 19:55:51;;;;;;;3.40;2.15;;;13.90;99.90;;;;;;5107562;28;20396;-78
2021/05/08 19:58:17;;;;;;;3.85;2.10;;;14.10;99.90;;;;;;5106581;28;20108;-77
2021/05/08 20:00:43;;;;;;;4.72;2.50;;;14.10;99.90;;;;;;5100088;28;20621;-78
2021/05/08 20:03:08;;;;;;;3.00;1.90;;;13.60;99.90;;;;;;5090290;28;20103;-77
2021/05/08 20:05:34;;;;;;;6.45;2.47;;;13.50;99.90;;;;;;5093456;28;20024;-77
2021/05/08 20:08:00;;;;;;;3.80;2.30;;;13.40;99.90;;;;;;5100571;28;20031;-76
2021/05/08 20:10:26;;;;;;;4.88;2.28;;;13.20;99.90;;;;;;5088164;28;20471;-76
2021/05/08 20:12:51;;;;;;;4.40;2.40;;;13.30;99.90;;;;;;5106572;28;20039;-77
2021/05/08 20:15:18;;;;;;;4.00;2.30;;;13.20;99.90;;;;;;5108345;28;20039;-76
2021/05/08 20:17:46;;;;;;;6.50;2.83;;;13.10;99.90;;;;;;5106993;28;20099;-76
2021/05/08 20:20:12;;;;;;;4.13;2.65;;;13.30;99.90;;;;;;5107048;28;20480;-78
2021/05/08 20:22:38;;;;;;;5.63;2.85;;;12.90;99.90;;;;;;5107446;28;20024;-76
2021/05/08 20:25:05;;;;;;;5.22;3.13;;;13.20;99.90;;;;;;5106594;28;20110;-75
2021/05/08 20:27:32;;;;;;;6.50;4.05;;;12.80;99.90;;;;;;5108108;28;20024;-76
2021/05/08 20:29:58;;;;;;;7.90;4.28;;;12.80;99.90;;;;;;5096820;28;20070;-76
2021/05/08 20:32:24;;;;;;;6.53;4.22;;;12.60;99.90;;;;;;5085204;28;20488;-76
2021/05/08 20:34:51;;;;;;;9.27;4.65;;;12.80;99.90;;;;;;5094117;28;20042;-75
2021/05/08 20:37:18;;;;;;;7.18;4.68;;;12.40;99.90;;;;;;5086987;28;20129;-75
2021/05/08 20:39:43;;;;;;;7.10;4.25;;;12.40;99.90;;;;;;5085104;28;20023;-75
2021/05/08 20:42:09;;;;;;;6.90;4.43;;;12.20;99.90;;;;;;5087343;28;20024;-75
2021/05/08 20:44:35;;;;;;;6.05;3.70;;;12.10;99.90;;;;;;5085502;28;20111;-75
2021/05/08 20:47:01;;;;;;;7.00;3.35;;;11.90;99.90;;;;;;5107187;28;20396;-76
2021/05/08 20:49:27;;;;;;;6.20;4.30;;;12.10;99.90;;;;;;5088607;28;20028;-76
2021/05/08 20:51:52;;;;;;;6.03;4.05;;;12.30;99.90;;;;;;5106245;28;20728;-75
2021/05/08 20:54:18;;;;;;;6.75;3.25;;;12.50;99.90;;;;;;5095745;28;20126;-74
2021/05/08 20:56:48;;;;;;;5.00;2.83;;;12.30;99.90;;;;;;5085436;28;20099;-76
2021/05/08 20:59:14;;;;;;;5.38;2.80;;;12.60;99.90;;;;;;5086456;28;20021;-76
2021/05/08 21:01:40;;;;;;;7.47;2.72;;;12.50;99.90;;;;;;5086761;28;20169;-76
2021/05/08 21:04:06;;;;;;;4.40;2.65;;;12.40;99.90;;;;;;5093672;28;20582;-76
2021/05/08 21:06:33;;;;;;;5.03;2.88;;;12.30;99.90;;;;;;5107443;28;20333;-75
2021/05/08 21:08:59;;;;;;;4.82;2.08;;;12.30;99.90;;;;;;5107206;28;20111;-76
2021/05/08 21:11:25;;;;;;;4.65;1.83;;;12.60;99.90;;;;;;5088227;28;20028;-75
2021/05/08 21:13:50;;;;;;;3.63;2.15;;;12.90;99.90;;;;;;5107640;28;20089;-76
2021/05/08 21:16:16;;;;;;;3.35;2.00;;;12.80;99.90;;;;;;5104712;28;20059;-76
2021/05/08 21:18:42;;;;;;;4.43;2.10;;;13.00;99.90;;;;;;5105377;28;20110;-77
2021/05/08 21:21:09;;;;;;;4.57;2.08;;;13.10;99.90;;;;;;5089770;28;20050;-76
2021/05/08 21:23:35;;;;;;;5.72;2.10;;;13.00;99.90;;;;;;5111275;28;20023;-76
2021/05/08 21:26:02;;;;;;;6.25;2.33;;;12.50;99.90;;;;;;5101890;28;20024;-77
2021/05/08 21:28:27;;;;;;;5.20;2.30;;;12.40;99.90;;;;;;5097699;28;20052;-76
2021/05/08 21:30:53;;;;;;;4.55;2.40;;;12.50;99.90;;;;;;5100078;28;20639;-76
2021/05/08 21:33:21;;;;;;;12.25;2.53;;;12.60;99.90;;;;;;5100059;28;20352;-76
2021/05/08 21:35:47;;;;;;;5.22;2.35;;;12.00;99.90;;;;;;5100433;28;20016;-76
2021/05/08 21:38:13;;;;;;;4.38;2.42;;;11.90;99.90;;;;;;5100509;28;20024;-77
2021/05/08 21:40:38;;;;;;;3.90;2.42;;;11.90;99.90;;;;;;5099809;28;20080;-75
2021/05/08 21:43:04;;;;;;;3.90;2.10;;;11.80;99.90;;;;;;5096883;28;20024;-77
2021/05/08 21:45:31;;;;;;;3.45;1.95;;;12.00;99.90;;;;;;5099862;28;20043;-77
2021/05/08 21:47:56;;;;;;;4.35;2.25;;;11.80;99.90;;;;;;5102554;28;20012;-75
2021/05/08 21:50:22;;;;;;;4.82;2.05;;;12.00;99.90;;;;;;5099766;28;20649;-75
2021/05/08 21:52:48;;;;;;;2.75;1.80;;;12.00;99.90;;;;;;5100654;28;20032;-76
2021/05/08 21:55:14;;;;;;;5.07;2.13;;;11.70;99.90;;;;;;5104416;22;20033;-77
2021/05/08 21:57:39;;;;;;;4.38;2.28;;;11.70;99.90;;;;;;5074030;28;20033;-77
2021/05/08 22:00:42;;;;;;;5.30;2.25;;;11.70;99.90;;;;;;5074338;28;20033;-77
2021/05/08 22:03:08;;;;;;;4.03;2.03;;;11.20;99.90;;;;;;5055942;28;20029;-77
2021/05/08 22:05:33;;;;;;;4.05;2.50;;;11.60;99.90;;;;;;5079829;28;20111;-77
2021/05/08 22:07:59;;;;;;;6.18;2.90;;;11.50;99.90;;;;;;5077204;28;20503;-78
2021/05/08 22:10:24;;;;;;;5.38;2.25;;;11.20;99.90;;;;;;5071827;28;20116;-77
2021/05/08 22:12:50;;;;;;;4.32;2.50;;;11.80;99.90;;;;;;5072065;28;20031;-77
2021/05/08 22:15:16;;;;;;;3.90;2.28;;;11.20;99.90;;;;;;5073188;28;20472;-78
2021/05/08 22:17:42;;;;;;;4.88;2.22;;;11.30;99.90;;;;;;5053455;28;20116;-77
2021/05/08 22:20:10;;;;;;;5.53;2.40;;;10.80;99.90;;;;;;5052406;28;20409;-77
2021/05/08 22:22:36;;;;;;;3.55;2.47;;;10.60;99.90;;;;;;5052758;28;20017;-77
2021/05/08 22:25:03;;;;;;;5.53;2.80;;;10.70;99.90;;;;;;5051749;28;20030;-77
2021/05/08 22:27:29;;;;;;;4.85;2.90;;;10.30;99.90;;;;;;5055014;28;20088;-77
2021/05/08 22:29:54;;;;;;;5.32;3.10;;;10.50;99.90;;;;;;5069232;28;20056;-79
2021/05/08 22:32:20;;;;;;;4.63;2.80;;;10.90;99.90;;;;;;5054470;28;20079;-77
2021/05/08 22:34:46;;;;;;;6.50;3.00;;;11.40;99.90;;;;;;5061475;28;20036;-78
2021/05/08 22:37:11;;;;;;;6.10;3.00;;;10.70;99.90;;;;;;5052106;28;20417;-77
2021/05/08 22:39:37;;;;;;;4.97;2.92;;;10.80;99.90;;;;;;5054562;28;20029;-78
2021/05/08 22:42:06;;;;;;;4.55;3.08;;;10.80;99.90;;;;;;5072441;28;20077;-78
2021/05/08 22:44:38;;;;;;;5.47;2.80;;;11.10;99.90;;;;;;5072770;28;20025;-77
2021/05/08 22:47:05;;;;;;;5.43;2.50;;;10.90;99.90;;;;;;5072344;28;20035;-77
2021/05/08 22:49:31;;;;;;;3.75;2.60;;;11.60;99.90;;;;;;5074109;28;20031;-77
2021/05/08 22:51:57;;;;;;;5.75;2.42;;;11.00;99.90;;;;;;5072534;28;20029;-77
2021/05/08 22:54:23;;;;;;;4.90;2.60;;;10.70;99.90;;;;;;5072033;28;20028;-77
2021/05/08 22:56:48;;;;;;;3.70;2.25;;;11.60;99.90;;;;;;5073087;28;20086;-78
2021/05/08 22:59:14;;;;;;;4.43;2.08;;;10.70;99.90;;;;;;5071963;28;20135;-77
2021/05/08 23:01:40;;;;;;;3.92;2.40;;;10.80;99.90;;;;;;5053377;28;20043;-78
2021/05/08 23:04:06;;;;;;;3.60;1.83;;;11.60;99.90;;;;;;5056447;28;20074;-77
2021/05/08 23:06:32;;;;;;;3.50;2.03;;;12.10;99.90;;;;;;5068480;28;20374;-78
2021/05/08 23:08:58;;;;;;;4.07;2.03;;;11.20;99.90;;;;;;5070671;28;20067;-77
2021/05/08 23:11:24;;;;;;;7.03;2.42;;;11.40;99.90;;;;;;5069745;28;20052;-77
2021/05/08 23:13:49;;;;;;;4.15;2.03;;;11.40;99.90;;;;;;5069701;28;20033;-78
